Time;durP1;ratioP1;P1;durP2;ratioP2;P2;SDS_P1;SDS_P2;PMS_P1;PMS_P2;Temp;Humidity;BMP_temperature;BMP_pressure;BME280_temperature;BME280_humidity;BME280_pressure;Samples;Min_cycle;Max_cycle;Signal;HPM_P1;HPM_P2
2023/03/06 00:01:09;;;;;;;;;;;3.60;99.90;;;;;;4993850;28;19988;-67
2023/03/06 00:03:35;;;;;;;;;;;3.60;99.90;;;;;;4988213;28;19934;-67
2023/03/06 00:06:02;;;;;;;;;;;3.60;99.90;;;;;;4963045;28;20526;-67
2023/03/06 00:08:30;;;;;;;;;;;3.60;99.90;;;;;;4970305;28;19933;-67
2023/03/06 00:10:57;;;;;;;;;;;3.60;99.90;;;;;;4965026;28;19933;-67
2023/03/06 00:13:25;;;;;;;;;;;3.60;99.90;;;;;;4967672;28;20028;-67
2023/03/06 00:15:52;;;;;;;;;;;3.60;99.90;;;;;;4968924;28;19969;-67
2023/03/06 00:18:18;;;;;;;;;;;3.60;99.90;;;;;;4973909;28;20021;-67
2023/03/06 00:20:45;;;;;;;;;;;3.60;99.90;;;;;;4987159;28;20042;-67
2023/03/06 00:23:12;;;;;;;;;;;3.60;99.90;;;;;;4986053;28;20400;-68
2023/03/06 00:25:43;;;;;;;;;;;3.60;99.90;;;;;;4972824;28;19930;-68
2023/03/06 00:28:11;;;;;;;;;;;3.60;99.90;;;;;;4987859;28;20357;-68
2023/03/06 00:30:38;;;;;;;;;;;3.60;99.90;;;;;;4973777;28;19932;-68
2023/03/06 00:33:04;;;;;;;;;;;3.60;99.90;;;;;;4964174;28;19930;-68
2023/03/06 00:35:31;;;;;;;;;;;3.60;99.90;;;;;;4967910;28;19930;-68
2023/03/06 00:37:58;;;;;;;;;;;3.60;99.90;;;;;;4969056;28;20029;-68
2023/03/06 00:40:25;;;;;;;;;;;3.60;99.90;;;;;;4960707;28;19965;-68
2023/03/06 00:42:53;;;;;;;;;;;3.60;99.90;;;;;;4969767;28;19930;-69
2023/03/06 00:45:20;;;;;;;;;;;3.60;99.90;;;;;;4966580;28;19926;-67
2023/03/06 00:47:47;;;;;;;;;;;3.60;99.90;;;;;;4965913;28;19930;-69
2023/03/06 00:50:14;;;;;;;;;;;3.50;99.90;;;;;;4972978;28;19974;-69
2023/03/06 00:52:41;;;;;;;;;;;3.50;99.90;;;;;;4973569;28;19930;-68
2023/03/06 00:55:08;;;;;;;;;;;3.50;99.90;;;;;;4973973;28;20266;-68
2023/03/06 00:57:35;;;;;;;;;;;3.50;99.90;;;;;;4989567;28;19924;-68
2023/03/06 01:00:03;;;;;;;;;;;3.50;99.90;;;;;;4975816;28;20034;-68
2023/03/06 01:02:30;;;;;;;;;;;3.50;99.90;;;;;;4972294;28;19933;-68
2023/03/06 01:04:57;;;;;;;;;;;3.50;99.90;;;;;;4965157;28;19937;-68
2023/03/06 01:07:26;;;;;;;;;;;3.50;99.90;;;;;;4957928;28;19999;-67
2023/03/06 01:09:52;;;;;;;;;;;3.50;99.90;;;;;;4969265;28;20029;-67
2023/03/06 01:12:22;;;;;;;;;;;3.50;99.90;;;;;;4971856;28;19926;-68
2023/03/06 01:14:49;;;;;;;;;;;3.50;99.90;;;;;;4963978;28;19930;-68
2023/03/06 01:17:17;;;;;;;;;;;3.50;99.90;;;;;;4965207;28;19925;-68
2023/03/06 01:19:43;;;;;;;;;;;3.50;99.90;;;;;;4970877;28;20309;-68
2023/03/06 01:22:10;;;;;;;;;;;3.50;99.90;;;;;;4966596;28;19933;-68
2023/03/06 01:24:37;;;;;;;;;;;3.50;99.90;;;;;;4967808;28;20008;-67
2023/03/06 01:27:04;;;;;;;;;;;3.50;99.90;;;;;;4980993;28;20493;-67
2023/03/06 01:29:31;;;;;;;;;;;3.40;99.90;;;;;;4969990;28;19933;-68
2023/03/06 01:31:58;;;;;;;;;;;3.40;99.90;;;;;;4960254;28;19926;-67
2023/03/06 01:34:26;;;;;;;;;;;3.40;99.90;;;;;;4972698;28;19926;-67
2023/03/06 01:36:52;;;;;;;;;;;3.40;99.90;;;;;;4988404;28;19930;-68
2023/03/06 01:39:19;;;;;;;;;;;3.50;99.90;;;;;;5009572;28;20510;-68
2023/03/06 01:41:46;;;;;;;;;;;3.40;99.90;;;;;;4988163;28;19930;-69
2023/03/06 01:44:13;;;;;;;;;;;3.40;99.90;;;;;;4964080;28;20321;-69
2023/03/06 01:46:41;;;;;;;;;;;3.40;99.90;;;;;;4976795;28;19930;-69
2023/03/06 01:49:13;;;;;;;;;;;3.30;99.90;;;;;;4985999;28;19941;-69
2023/03/06 01:51:43;;;;;;;;;;;3.40;99.90;;;;;;4971790;28;19930;-68
2023/03/06 01:54:13;;;;;;;;;;;3.30;99.90;;;;;;4981048;28;19980;-68
2023/03/06 01:56:40;;;;;;;;;;;3.30;99.90;;;;;;4966715;28;19941;-68
2023/03/06 01:59:07;;;;;;;;;;;3.30;99.90;;;;;;4965045;28;19936;-68
2023/03/06 02:01:35;;;;;;;;;;;3.30;99.90;;;;;;4978789;28;19934;-68
2023/03/06 02:04:01;;;;;;;;;;;3.20;99.90;;;;;;4964520;28;20502;-67
2023/03/06 02:06:29;;;;;;;;;;;3.30;99.90;;;;;;4970851;28;19934;-68
2023/03/06 02:08:57;;;;;;;;;;;3.20;99.90;;;;;;5017864;28;19936;-67
2023/03/06 02:11:24;;;;;;;;;;;3.30;99.90;;;;;;4959852;28;20028;-68
2023/03/06 02:13:51;;;;;;;;;;;3.30;99.90;;;;;;4968189;28;19926;-68
2023/03/06 02:16:20;;;;;;;;;;;3.30;99.90;;;;;;4971072;28;20584;-68
2023/03/06 02:18:46;;;;;;;;;;;3.30;99.90;;;;;;4986807;28;20379;-68
2023/03/06 02:21:19;;;;;;;;;;;3.30;99.90;;;;;;4965629;28;19948;-68
2023/03/06 02:23:51;;;;;;;;;;;3.30;99.90;;;;;;4967815;28;19966;-66
2023/03/06 02:26:19;;;;;;;;;;;3.30;99.90;;;;;;4987666;28;19949;-67
2023/03/06 02:28:46;;;;;;;;;;;3.20;99.90;;;;;;4988631;28;19934;-67
2023/03/06 02:31:20;;;;;;;;;;;3.30;99.90;;;;;;4982034;28;20015;-67
2023/03/06 02:33:47;;;;;;;;;;;3.30;99.90;;;;;;4984845;28;19932;-66
2023/03/06 02:36:15;;;;;;;;;;;3.30;99.90;;;;;;4994964;28;19926;-69
2023/03/06 02:38:45;;;;;;;;;;;3.20;99.90;;;;;;4980394;28;20614;-67
2023/03/06 02:41:15;;;;;;;;;;;3.20;99.90;;;;;;4991941;28;20021;-67
2023/03/06 02:43:43;;;;;;;;;;;3.20;99.90;;;;;;4976535;28;20015;-68
2023/03/06 02:46:10;;;;;;;;;;;3.20;99.90;;;;;;4969260;28;19961;-67
2023/03/06 02:48:37;;;;;;;;;;;3.10;99.90;;;;;;4997151;28;19925;-68
2023/03/06 02:51:03;;;;;;;;;;;3.10;99.90;;;;;;5006488;28;20007;-67
2023/03/06 02:53:30;;;;;;;;;;;3.20;99.90;;;;;;4977218;28;19934;-67
2023/03/06 02:55:57;;;;;;;;;;;3.20;99.90;;;;;;4974298;28;20695;-68
2023/03/06 02:58:24;;;;;;;;;;;3.10;99.90;;;;;;5010954;28;19940;-68
2023/03/06 03:00:52;;;;;;;;;;;3.10;99.90;;;;;;4999797;28;19933;-67
2023/03/06 03:03:18;;;;;;;;;;;3.10;99.90;;;;;;4978894;28;20015;-68
2023/03/06 03:05:45;;;;;;;;;;;3.10;99.90;;;;;;4968667;28;20386;-66
2023/03/06 03:08:12;;;;;;;;;;;3.10;99.90;;;;;;4968868;28;19941;-67
2023/03/06 03:10:39;;;;;;;;;;;3.20;99.90;;;;;;4969514;28;19941;-67
2023/03/06 03:13:05;;;;;;;;;;;3.10;99.90;;;;;;4986162;28;19955;-67
2023/03/06 03:15:32;;;;;;;;;;;3.10;99.90;;;;;;4968522;28;19957;-67
2023/03/06 03:18:00;;;;;;;;;;;3.10;99.90;;;;;;5002821;28;20018;-68
2023/03/06 03:20:27;;;;;;;;;;;3.10;99.90;;;;;;4977078;28;20355;-68
2023/03/06 03:22:55;;;;;;;;;;;3.10;99.90;;;;;;5005561;28;20289;-68
2023/03/06 03:25:22;;;;;;;;;;;3.10;99.90;;;;;;4963003;28;20378;-69
2023/03/06 03:27:49;;;;;;;;;;;3.10;99.90;;;;;;4971787;28;19987;-68
2023/03/06 03:30:16;;;;;;;;;;;3.10;99.90;;;;;;4970104;28;20381;-67
2023/03/06 03:32:43;;;;;;;;;;;3.10;99.90;;;;;;4976041;28;20316;-68
2023/03/06 03:35:11;;;;;;;;;;;3.10;99.90;;;;;;4977658;28;19930;-68
2023/03/06 03:37:38;;;;;;;;;;;3.10;99.90;;;;;;4982534;28;20389;-69
2023/03/06 03:40:06;;;;;;;;;;;3.10;99.90;;;;;;5002089;28;19926;-66
2023/03/06 03:42:34;;;;;;;;;;;3.10;99.90;;;;;;4992915;28;19926;-66
2023/03/06 03:45:01;;;;;;;;;;;3.10;99.90;;;;;;4976177;28;20016;-67
2023/03/06 03:47:28;;;;;;;;;;;3.10;99.90;;;;;;4972531;28;19948;-67
2023/03/06 03:49:54;;;;;;;;;;;3.10;99.90;;;;;;4976619;28;19961;-67
2023/03/06 03:52:23;;;;;;;;;;;3.10;99.90;;;;;;4971140;28;20418;-67
2023/03/06 03:54:49;;;;;;;;;;;3.10;99.90;;;;;;4980473;28;19962;-67
2023/03/06 03:57:16;;;;;;;;;;;3.10;99.90;;;;;;4980610;28;19980;-67
2023/03/06 03:59:43;;;;;;;;;;;3.10;99.90;;;;;;4976180;28;20859;-68
2023/03/06 04:02:09;;;;;;;;;;;3.10;99.90;;;;;;4985901;28;20029;-68
2023/03/06 04:04:36;;;;;;;;;;;3.10;99.90;;;;;;4969627;28;20458;-69
2023/03/06 04:07:03;;;;;;;;;;;3.10;99.90;;;;;;4990118;28;20411;-69
2023/03/06 04:09:31;;;;;;;;;;;3.10;99.90;;;;;;4976939;28;19930;-67
2023/03/06 04:11:58;;;;;;;;;;;3.10;99.90;;;;;;4996454;28;19987;-67
2023/03/06 04:14:25;;;;;;;;;;;3.10;99.90;;;;;;4975069;28;20019;-67
2023/03/06 04:16:52;;;;;;;;;;;3.10;99.90;;;;;;4976458;28;20417;-67
2023/03/06 04:19:18;;;;;;;;;;;3.10;99.90;;;;;;4973688;28;19926;-67
2023/03/06 04:21:45;;;;;;;;;;;3.10;99.90;;;;;;5016669;28;19934;-67
2023/03/06 04:24:12;;;;;;;;;;;3.10;99.90;;;;;;4976660;28;19926;-66
2023/03/06 04:26:40;;;;;;;;;;;3.00;99.90;;;;;;4976351;28;19932;-66
2023/03/06 04:29:07;;;;;;;;;;;3.00;99.90;;;;;;4965224;28;19948;-67
2023/03/06 04:31:36;;;;;;;;;;;3.00;99.90;;;;;;4970597;28;19933;-68
2023/03/06 04:34:05;;;;;;;;;;;3.00;99.90;;;;;;4991011;28;20314;-69
2023/03/06 04:36:43;;;;;;;;;;;2.90;99.90;;;;;;4992790;28;19926;-68
2023/03/06 04:39:11;;;;;;;;;;;2.90;99.90;;;;;;4969392;28;19935;-69
2023/03/06 04:41:40;;;;;;;;;;;2.90;99.90;;;;;;4986200;28;19926;-70
2023/03/06 04:44:07;;;;;;;;;;;2.90;99.90;;;;;;4976718;28;19926;-68
2023/03/06 04:46:34;;;;;;;;;;;2.90;99.90;;;;;;4977866;28;19930;-68
2023/03/06 04:49:01;;;;;;;;;;;2.80;99.90;;;;;;4979431;28;20367;-68
2023/03/06 04:51:28;;;;;;;;;;;2.80;99.90;;;;;;4988534;28;19964;-66
2023/03/06 04:53:55;;;;;;;;;;;2.80;99.90;;;;;;4968327;28;19960;-67
2023/03/06 04:56:22;;;;;;;;;;;2.80;99.90;;;;;;4969545;28;19932;-67
2023/03/06 04:58:50;;;;;;;;;;;2.80;99.90;;;;;;4964704;28;20059;-67
2023/03/06 05:01:17;;;;;;;;;;;2.80;99.90;;;;;;4963599;28;20048;-68
2023/03/06 05:03:44;;;;;;;;;;;2.80;99.90;;;;;;4963057;28;19940;-68
2023/03/06 05:06:10;;;;;;;;;;;2.80;99.90;;;;;;4969237;28;20433;-68
2023/03/06 05:08:37;;;;;;;;;;;2.80;99.90;;;;;;4968336;28;20017;-68
2023/03/06 05:11:04;;;;;;;;;;;2.80;99.90;;;;;;4968468;28;20005;-69
2023/03/06 05:13:30;;;;;;;;;;;2.80;99.90;;;;;;4961849;28;19926;-68
2023/03/06 05:16:02;;;;;;;;;;;2.80;99.90;;;;;;4967005;28;20020;-68
2023/03/06 05:18:29;;;;;;;;;;;2.80;99.90;;;;;;4975285;28;19925;-68
2023/03/06 05:20:58;;;;;;;;;;;2.80;99.90;;;;;;4993777;28;20295;-69
2023/03/06 05:23:25;;;;;;;;;;;2.80;99.90;;;;;;4981322;28;19926;-70
2023/03/06 05:25:52;;;;;;;;;;;2.80;99.90;;;;;;4972633;28;19926;-68
2023/03/06 05:28:19;;;;;;;;;;;2.80;99.90;;;;;;4968050;28;19954;-68
2023/03/06 05:30:45;;;;;;;;;;;2.80;99.90;;;;;;4966580;28;19930;-70
2023/03/06 05:33:13;;;;;;;;;;;2.80;99.90;;;;;;4972706;28;19926;-68
2023/03/06 05:35:44;;;;;;;;;;;2.80;99.90;;;;;;4972832;28;19932;-68
2023/03/06 05:38:11;;;;;;;;;;;2.80;99.90;;;;;;4965500;28;19937;-68
2023/03/06 05:40:39;;;;;;;;;;;2.80;99.90;;;;;;4967062;28;20017;-69
2023/03/06 05:43:07;;;;;;;;;;;2.80;99.90;;;;;;4970355;28;19926;-69
2023/03/06 05:45:33;;;;;;;;;;;2.80;99.90;;;;;;4963959;28;20393;-69
2023/03/06 05:48:00;;;;;;;;;;;2.80;99.90;;;;;;4982760;28;20033;-69
2023/03/06 05:50:28;;;;;;;;;;;2.80;99.90;;;;;;4980753;28;19984;-69
2023/03/06 05:52:55;;;;;;;;;;;2.70;99.90;;;;;;5005124;28;19934;-69
2023/03/06 05:55:27;;;;;;;;;;;2.70;99.90;;;;;;4987642;28;19930;-69
2023/03/06 05:57:54;;;;;;;;;;;2.70;99.90;;;;;;4962401;28;19956;-68
2023/03/06 06:00:21;;;;;;;;;;;2.70;99.90;;;;;;4964569;28;19926;-69
2023/03/06 06:02:48;;;;;;;;;;;2.60;99.90;;;;;;4973657;28;19980;-69
2023/03/06 06:05:15;;;;;;;;;;;2.70;99.90;;;;;;4982064;28;19983;-69
2023/03/06 06:07:43;;;;;;;;;;;2.60;99.90;;;;;;4974025;28;20011;-69
2023/03/06 06:10:11;;;;;;;;;;;2.60;99.90;;;;;;4955179;28;20033;-69
2023/03/06 06:12:38;;;;;;;;;;;2.60;99.90;;;;;;4957762;28;19934;-68
2023/03/06 06:15:06;;;;;;;;;;;2.60;99.90;;;;;;4980659;28;20402;-69
2023/03/06 06:17:33;;;;;;;;;;;2.60;99.90;;;;;;4961565;28;19937;-69
2023/03/06 06:20:00;;;;;;;;;;;2.50;99.90;;;;;;4967674;28;20007;-68
2023/03/06 06:22:27;;;;;;;;;;;2.40;99.90;;;;;;4977290;28;19925;-69
2023/03/06 06:24:55;;;;;;;;;;;2.40;99.90;;;;;;4985567;28;19930;-69
2023/03/06 06:27:23;;;;;;;;;;;2.30;99.90;;;;;;4982816;28;19934;-68
2023/03/06 06:29:51;;;;;;;;;;;2.30;99.90;;;;;;4973531;28;20511;-69
2023/03/06 06:32:18;;;;;;;;;;;2.20;99.90;;;;;;4970320;28;20030;-69
2023/03/06 06:34:44;;;;;;;;;;;2.20;99.90;;;;;;4981005;28;20359;-69
2023/03/06 06:37:11;;;;;;;;;;;2.20;99.90;;;;;;4979316;28;19926;-69
2023/03/06 06:39:38;;;;;;;;;;;2.20;99.90;;;;;;4973898;28;20019;-68
2023/03/06 06:42:08;;;;;;;;;;;2.10;99.90;;;;;;4956543;28;19926;-69
2023/03/06 06:44:35;;;;;;;;;;;2.10;99.90;;;;;;4967027;28;19926;-69
2023/03/06 06:47:03;;;;;;;;;;;2.10;99.90;;;;;;4968408;28;19926;-68
2023/03/06 06:49:30;;;;;;;;;;;2.20;99.90;;;;;;5008016;28;20424;-68
2023/03/06 06:51:57;;;;;;;;;;;2.20;99.90;;;;;;4969327;28;19926;-68
2023/03/06 06:54:24;;;;;;;;;;;2.20;99.90;;;;;;4972981;28;19927;-69
2023/03/06 06:56:51;;;;;;;;;;;2.20;99.90;;;;;;4974356;28;19934;-69
2023/03/06 06:59:19;;;;;;;;;;;2.40;99.90;;;;;;4979629;28;20005;-69
2023/03/06 07:01:46;;;;;;;;;;;2.60;99.90;;;;;;4971026;28;19977;-68
2023/03/06 07:04:13;;;;;;;;;;;2.70;99.90;;;;;;4988137;28;20407;-69
2023/03/06 07:06:40;;;;;;;;;;;2.80;99.90;;;;;;4968643;28;20024;-68
2023/03/06 07:09:07;;;;;;;;;;;3.00;99.90;;;;;;4972331;28;19931;-68
2023/03/06 07:11:34;;;;;;;;;;;3.10;99.90;;;;;;4970940;28;19933;-68
2023/03/06 07:14:01;;;;;;;;;;;3.30;99.90;;;;;;4966400;28;19930;-68
2023/03/06 07:16:33;;;;;;;;;;;3.50;99.90;;;;;;4958975;28;20410;-67
2023/03/06 07:18:59;;;;;;;;;;;3.70;99.90;;;;;;4964679;28;20306;-67
2023/03/06 07:21:26;;;;;;;;;;;3.70;99.90;;;;;;4959730;28;19930;-68
2023/03/06 07:23:56;;;;;;;;;;;3.60;99.90;;;;;;4967383;28;19930;-66
2023/03/06 07:26:22;;;;;;;;;;;3.50;99.90;;;;;;4971304;28;19955;-68
2023/03/06 07:28:51;;;;;;;;;;;3.50;99.90;;;;;;4962729;28;20448;-67
2023/03/06 07:31:18;;;;;;;;;;;3.40;99.90;;;;;;4967497;28;20389;-67
2023/03/06 07:33:46;;;;;;;;;;;3.50;99.90;;;;;;4965404;28;19972;-67
2023/03/06 07:36:13;;;;;;;;;;;3.50;99.90;;;;;;4978607;28;19979;-68
2023/03/06 07:38:40;;;;;;;;;;;3.60;99.90;;;;;;4976746;28;20007;-69
2023/03/06 07:41:12;;;;;;;;;;;3.70;99.90;;;;;;4979651;28;20424;-68
2023/03/06 07:43:39;;;;;;;;;;;3.70;99.90;;;;;;4964761;28;19926;-68
2023/03/06 07:46:06;;;;;;;;;;;3.80;99.90;;;;;;4975067;28;19930;-68
2023/03/06 07:48:32;;;;;;;;;;;4.00;99.90;;;;;;4965275;28;20024;-68
2023/03/06 07:51:01;;;;;;;;;;;4.00;99.90;;;;;;4967524;28;19926;-68
2023/03/06 07:53:29;;;;;;;;;;;4.10;99.90;;;;;;4970075;28;20007;-68
2023/03/06 07:55:56;;;;;;;;;;;4.40;99.90;;;;;;4968896;28;19938;-68
2023/03/06 07:58:23;;;;;;;;;;;4.60;99.90;;;;;;4967393;28;19927;-68
2023/03/06 08:00:50;;;;;;;;;;;4.60;99.90;;;;;;4964005;28;19930;-67
2023/03/06 08:03:17;;;;;;;;;;;4.50;99.90;;;;;;4970661;28;19980;-67
2023/03/06 08:05:44;;;;;;;;;;;4.50;99.90;;;;;;4964380;28;19937;-67
2023/03/06 08:08:12;;;;;;;;;;;4.60;99.90;;;;;;4963449;28;19938;-67
2023/03/06 08:10:39;;;;;;;;;;;5.60;99.90;;;;;;4974407;28;19926;-67
2023/03/06 08:13:06;;;;;;;;;;;5.90;99.90;;;;;;4963857;28;20484;-67
2023/03/06 08:15:33;;;;;;;;;;;5.90;99.90;;;;;;4969047;28;19956;-68
2023/03/06 08:17:59;;;;;;;;;;;6.30;99.90;;;;;;4968596;28;19926;-68
2023/03/06 08:20:26;;;;;;;;;;;7.00;99.90;;;;;;4973358;28;19977;-68
2023/03/06 08:22:53;;;;;;;;;;;8.00;99.90;;;;;;4962858;28;19930;-67
2023/03/06 08:25:23;;;;;;;;;;;8.20;99.90;;;;;;4978500;28;20037;-67
2023/03/06 08:27:50;;;;;;;;;;;7.50;99.90;;;;;;4966380;28;19926;-67
2023/03/06 08:30:18;;;;;;;;;;;6.60;99.90;;;;;;4967469;28;20021;-67
2023/03/06 08:32:45;;;;;;;;;;;6.00;99.90;;;;;;4972568;28;19933;-67
2023/03/06 08:35:12;;;;;;;;;;;5.50;99.90;;;;;;4979668;28;20013;-68
2023/03/06 08:37:38;;;;;;;;;;;5.20;99.90;;;;;;4980874;28;19971;-67
2023/03/06 08:40:06;;;;;;;;;;;5.10;99.90;;;;;;4964182;28;19926;-68
2023/03/06 08:42:34;;;;;;;;;;;5.00;99.90;;;;;;4957745;28;20013;-67
2023/03/06 08:45:00;;;;;;;;;;;5.10;99.90;;;;;;4972322;28;19925;-68
2023/03/06 08:47:27;;;;;;;;;;;5.30;99.90;;;;;;4966370;28;20016;-67
2023/03/06 08:49:54;;;;;;;;;;;5.40;99.90;;;;;;4965003;28;20311;-67
2023/03/06 08:52:21;;;;;;;;;;;5.50;99.90;;;;;;4970053;28;19930;-67
2023/03/06 08:54:47;;;;;;;;;;;5.70;99.90;;;;;;4967362;28;20021;-67
2023/03/06 08:57:14;;;;;;;;;;;5.80;99.90;;;;;;4967861;28;19925;-66
2023/03/06 08:59:42;;;;;;;;;;;5.70;99.90;;;;;;4964811;28;19973;-86
2023/03/06 09:02:11;;;;;;;;;;;5.60;99.90;;;;;;4963482;28;19969;-67
2023/03/06 09:04:38;;;;;;;;;;;5.60;99.90;;;;;;4952944;28;20030;-65
2023/03/06 09:07:05;;;;;;;;;;;5.60;99.90;;;;;;4959058;28;19938;-68
2023/03/06 09:09:35;;;;;;;;;;;5.70;99.90;;;;;;4959303;28;20013;-68
2023/03/06 09:12:02;;;;;;;;;;;5.70;99.90;;;;;;4963800;28;19995;-67
2023/03/06 09:14:28;;;;;;;;;;;5.60;99.90;;;;;;4968503;28;19937;-67
2023/03/06 09:16:57;;;;;;;;;;;5.50;99.90;;;;;;4970713;28;19925;-68
2023/03/06 09:19:23;;;;;;;;;;;5.60;99.90;;;;;;4964777;28;19926;-68
2023/03/06 09:21:50;;;;;;;;;;;5.50;99.90;;;;;;4959668;28;19925;-67
2023/03/06 09:24:17;;;;;;;;;;;5.60;99.90;;;;;;4962819;28;19958;-68
2023/03/06 09:26:44;;;;;;;;;;;5.80;99.90;;;;;;4966836;28;19938;-67
2023/03/06 09:29:11;;;;;;;;;;;5.70;99.90;;;;;;4952801;28;20347;-68
2023/03/06 09:31:38;;;;;;;;;;;5.70;99.90;;;;;;4967568;28;19984;-68
2023/03/06 09:34:06;;;;;;;;;;;5.70;99.90;;;;;;4966798;28;19936;-67
2023/03/06 09:36:33;;;;;;;;;;;5.70;99.90;;;;;;4976456;28;20407;-67
2023/03/06 09:39:00;;;;;;;;;;;5.60;99.90;;;;;;4968286;28;19934;-68
2023/03/06 09:41:29;;;;;;;;;;;5.70;99.90;;;;;;4966292;28;19935;-68
2023/03/06 09:43:57;;;;;;;;;;;5.80;99.90;;;;;;4966065;28;19956;-67
2023/03/06 09:46:28;;;;;;;;;;;6.00;99.90;;;;;;4961053;28;20009;-68
2023/03/06 09:49:01;;;;;;;;;;;6.10;99.90;;;;;;4973047;28;20377;-68
2023/03/06 09:51:33;;;;;;;;;;;6.10;99.90;;;;;;4964925;28;19972;-68
2023/03/06 09:54:03;;;;;;;;;;;6.20;99.90;;;;;;4965091;28;21185;-68
2023/03/06 09:56:32;;;;;;;;;;;6.20;99.90;;;;;;4961702;28;20542;-68
2023/03/06 09:59:03;;;;;;;;;;;6.30;99.90;;;;;;4967605;28;19935;-69
2023/03/06 10:01:31;;;;;;;;;;;6.50;99.90;;;;;;4965300;28;19926;-67
2023/03/06 10:04:05;;;;;;;;;;;6.60;99.90;;;;;;4959662;28;19926;-68
2023/03/06 10:06:34;;;;;;;;;;;6.60;99.90;;;;;;4963877;28;20277;-69
2023/03/06 10:09:03;;;;;;;;;;;6.70;99.90;;;;;;4980045;28;20025;-69
2023/03/06 10:11:32;;;;;;;;;;;6.70;99.90;;;;;;4972569;28;20083;-68
2023/03/06 10:14:06;;;;;;;;;;;6.60;99.90;;;;;;4962303;28;20021;-68
2023/03/06 10:16:33;;;;;;;;;;;6.80;99.90;;;;;;4966861;28;19934;-69
2023/03/06 10:19:01;;;;;;;;;;;6.90;99.90;;;;;;4976633;28;20151;-69
2023/03/06 10:21:33;;;;;;;;;;;7.00;99.90;;;;;;4965541;28;19934;-69
2023/03/06 10:24:05;;;;;;;;;;;7.20;99.90;;;;;;4956434;28;19933;-67
2023/03/06 10:26:33;;;;;;;;;;;7.50;99.90;;;;;;4965297;28;19974;-67
2023/03/06 10:29:07;;;;;;;;;;;7.80;99.90;;;;;;4966891;28;20222;-67
2023/03/06 10:31:35;;;;;;;;;;;8.10;99.90;;;;;;4964322;28;20396;-68
2023/03/06 10:34:11;;;;;;;;;;;8.20;99.00;;;;;;4969950;28;19927;-67
2023/03/06 10:36:38;;;;;;;;;;;8.40;98.30;;;;;;4978300;28;20412;-67
2023/03/06 10:39:09;;;;;;;;;;;8.60;96.70;;;;;;4976447;28;19972;-68
2023/03/06 10:41:37;;;;;;;;;;;8.70;95.40;;;;;;4957642;28;19969;-67
2023/03/06 10:44:23;;;;;;;;;;;8.80;94.50;;;;;;4963125;28;19954;-69
2023/03/06 10:46:51;;;;;;;;;;;8.70;93.70;;;;;;4964123;28;20341;-69
2023/03/06 10:49:29;;;;;;;;;;;8.60;93.80;;;;;;4966869;28;19940;-70
2023/03/06 10:51:57;;;;;;;;;;;8.40;93.10;;;;;;4973374;28;19927;-70
2023/03/06 10:54:25;;;;;;;;;;;8.50;93.30;;;;;;4966326;28;19934;-68
2023/03/06 10:56:52;;;;;;;;;;;8.20;93.50;;;;;;4963343;28;20156;-69
2023/03/06 10:59:21;;;;;;;;;;;8.30;94.50;;;;;;4963125;28;19926;-70
2023/03/06 11:01:49;;;;;;;;;;;8.60;93.80;;;;;;4959705;28;19934;-68
2023/03/06 11:04:29;;;;;;;;;;;8.50;92.90;;;;;;4964722;28;19965;-69
2023/03/06 11:07:13;;;;;;;;;;;8.60;94.00;;;;;;4958381;28;19941;-69
2023/03/06 11:09:41;;;;;;;;;;;8.60;94.10;;;;;;4965592;28;19926;-69
2023/03/06 11:12:25;;;;;;;;;;;8.70;94.20;;;;;;4965187;28;19933;-69
2023/03/06 11:15:11;;;;;;;;;;;8.80;93.60;;;;;;4967986;28;20285;-68
2023/03/06 11:17:47;;;;;;;;;;;8.70;92.90;;;;;;4955767;28;19930;-68
2023/03/06 11:20:18;;;;;;;;;;;8.40;91.70;;;;;;4965923;28;19968;-69
2023/03/06 11:22:48;;;;;;;;;;;8.30;92.20;;;;;;4962051;28;19937;-69
2023/03/06 11:25:16;;;;;;;;;;;8.20;92.20;;;;;;4967619;28;19929;-69
2023/03/06 11:27:44;;;;;;;;;;;8.30;92.30;;;;;;4960726;28;20013;-68
2023/03/06 11:30:16;;;;;;;;;;;8.10;92.60;;;;;;4969376;28;20021;-68
2023/03/06 11:32:45;;;;;;;;;;;8.30;93.20;;;;;;4970301;28;19934;-68
2023/03/06 11:35:12;;;;;;;;;;;8.40;92.80;;;;;;4972437;28;19926;-68
2023/03/06 11:37:43;;;;;;;;;;;8.40;92.20;;;;;;4967896;28;20393;-69
2023/03/06 11:40:15;;;;;;;;;;;8.40;92.80;;;;;;4961749;28;19930;-69
2023/03/06 11:42:45;;;;;;;;;;;8.30;91.70;;;;;;4964438;28;19930;-69
2023/03/06 11:45:19;;;;;;;;;;;8.20;91.20;;;;;;4967963;28;19926;-69
2023/03/06 11:47:48;;;;;;;;;;;8.40;91.70;;;;;;4966498;28;19933;-68
2023/03/06 11:50:19;;;;;;;;;;;8.50;91.00;;;;;;4972772;28;19930;-69
2023/03/06 11:52:48;;;;;;;;;;;8.60;90.90;;;;;;4965487;28;19941;-69
2023/03/06 11:55:16;;;;;;;;;;;8.80;90.90;;;;;;4965921;28;20423;-68
2023/03/06 11:57:47;;;;;;;;;;;8.80;90.20;;;;;;4967235;28;20377;-68
2023/03/06 12:00:22;;;;;;;;;;;8.90;89.70;;;;;;4968130;28;20041;-68
2023/03/06 12:03:01;;;;;;;;;;;8.60;87.30;;;;;;4973590;28;20389;-68
2023/03/06 12:05:34;;;;;;;;;;;8.30;89.80;;;;;;5014767;28;19926;-68
2023/03/06 12:08:07;;;;;;;;;;;8.30;90.50;;;;;;4979986;28;19934;-68
2023/03/06 12:10:35;;;;;;;;;;;8.40;91.30;;;;;;4972692;28;20036;-69
2023/03/06 12:13:18;;;;;;;;;;;8.70;91.40;;;;;;4967264;28;19926;-69
2023/03/06 12:15:53;;;;;;;;;;;8.50;91.20;;;;;;4961064;28;19933;-69
2023/03/06 12:18:30;;;;;;;;;;;8.40;90.80;;;;;;4963201;28;20019;-69
2023/03/06 12:21:00;;;;;;;;;;;8.20;91.30;;;;;;4960482;28;20454;-69
2023/03/06 12:23:38;;;;;;;;;;;7.80;92.00;;;;;;4960869;28;19933;-69
2023/03/06 12:26:09;;;;;;;;;;;7.70;92.00;;;;;;4962318;28;19936;-69
2023/03/06 12:28:44;;;;;;;;;;;7.50;92.00;;;;;;4961350;28;19940;-69
2023/03/06 12:31:23;;;;;;;;;;;7.40;92.60;;;;;;4967011;28;20397;-69
2023/03/06 12:33:56;;;;;;;;;;;7.30;92.80;;;;;;4961895;28;19926;-69
2023/03/06 12:36:29;;;;;;;;;;;7.50;93.00;;;;;;4966338;28;20017;-69
2023/03/06 12:38:59;;;;;;;;;;;7.90;92.90;;;;;;4959023;28;19934;-70
2023/03/06 12:41:31;;;;;;;;;;;8.20;90.90;;;;;;4958606;28;19934;-69
2023/03/06 12:44:22;;;;;;;;;;;8.10;88.70;;;;;;4958137;28;20030;-69
2023/03/06 12:46:51;;;;;;;;;;;8.30;89.90;;;;;;4966650;28;20312;-69
2023/03/06 12:49:23;;;;;;;;;;;8.60;90.20;;;;;;4967479;28;20012;-68
2023/03/06 12:51:50;;;;;;;;;;;8.50;87.80;;;;;;4968498;28;19927;-68
2023/03/06 12:54:19;;;;;;;;;;;8.30;88.80;;;;;;4969813;28;19927;-68
2023/03/06 12:56:47;;;;;;;;;;;8.30;88.50;;;;;;4964572;28;20018;-69
2023/03/06 12:59:32;;;;;;;;;;;8.40;85.30;;;;;;4970947;28;20029;-70
2023/03/06 13:02:08;;;;;;;;;;;8.70;85.70;;;;;;4978301;28;20024;-68
2023/03/06 13:04:40;;;;;;;;;;;8.60;81.80;;;;;;4980614;28;19975;-69
2023/03/06 13:07:13;;;;;;;;;;;8.60;78.30;;;;;;4970573;28;19926;-69
2023/03/06 13:09:53;;;;;;;;;;;8.50;73.60;;;;;;4979821;28;19926;-69
2023/03/06 13:12:27;;;;;;;;;;;8.40;73.20;;;;;;4977582;28;19925;-69
2023/03/06 13:14:55;;;;;;;;;;;8.10;78.20;;;;;;4978418;28;19925;-69
2023/03/06 13:17:37;;;;;;;;;;;7.90;81.90;;;;;;4976426;28;20024;-69
2023/03/06 13:20:23;;;;;;;;;;;7.70;84.30;;;;;;4958267;28;19927;-69
2023/03/06 13:22:49;;;;;;;;;;;7.80;86.30;;;;;;4965294;28;20350;-69
2023/03/06 13:25:35;;;;;;;;;;;8.00;86.60;;;;;;4983221;28;19936;-69
2023/03/06 13:28:03;;;;;;;;;;;8.30;86.80;;;;;;4971102;28;19933;-68
2023/03/06 13:30:43;;;;;;;;;;;8.60;87.10;;;;;;4982374;28;19933;-69
2023/03/06 13:33:30;;;;;;;;;;;8.70;83.40;;;;;;4970320;28;19926;-68
2023/03/06 13:35:59;;;;;;;;;;;8.80;81.50;;;;;;4967513;28;20411;-68
2023/03/06 13:38:36;;;;;;;;;;;8.60;80.10;;;;;;4962567;28;19930;-68
2023/03/06 13:41:21;;;;;;;;;;;8.50;82.10;;;;;;4964728;28;19926;-68
2023/03/06 13:43:48;;;;;;;;;;;8.20;80.70;;;;;;4965431;28;19931;-69
2023/03/06 13:46:23;;;;;;;;;;;8.00;81.90;;;;;;4970668;28;20019;-68
2023/03/06 13:49:03;;;;;;;;;;;8.00;85.30;;;;;;4971228;28;19937;-68
2023/03/06 13:51:33;;;;;;;;;;;8.40;84.90;;;;;;4957675;28;20365;-69
2023/03/06 13:54:20;;;;;;;;;;;8.90;83.60;;;;;;4961917;28;19934;-68
2023/03/06 13:57:06;;;;;;;;;;;9.00;71.40;;;;;;4964260;28;20345;-67
2023/03/06 13:59:48;;;;;;;;;;;9.00;69.60;;;;;;4960730;28;20397;-65
2023/03/06 14:02:29;;;;;;;;;;;9.00;68.60;;;;;;4967422;28;20041;-67
2023/03/06 14:04:56;;;;;;;;;;;8.80;68.40;;;;;;4966353;28;19926;-66
2023/03/06 14:07:25;;;;;;;;;;;8.90;68.90;;;;;;4964218;28;19926;-66
2023/03/06 14:09:58;;;;;;;;;;;8.70;67.90;;;;;;4973215;28;20301;-67
2023/03/06 14:12:28;;;;;;;;;;;8.60;67.10;;;;;;4964403;28;19977;-66
2023/03/06 14:14:56;;;;;;;;;;;8.40;67.20;;;;;;4979780;28;20361;-66
2023/03/06 14:17:25;;;;;;;;;;;8.30;68.60;;;;;;4964026;28;20403;-65
2023/03/06 14:19:52;;;;;;;;;;;8.30;69.70;;;;;;4966393;28;20400;-65
2023/03/06 14:22:20;;;;;;;;;;;8.30;66.90;;;;;;4968618;28;19937;-65
2023/03/06 14:24:55;;;;;;;;;;;8.40;67.20;;;;;;4975093;28;19933;-68
2023/03/06 14:27:37;;;;;;;;;;;8.20;67.90;;;;;;4966146;28;20445;-69
2023/03/06 14:30:09;;;;;;;;;;;8.20;70.10;;;;;;4959775;28;19926;-68
2023/03/06 14:32:37;;;;;;;;;;;8.30;69.40;;;;;;4963809;28;20352;-69
2023/03/06 14:35:05;;;;;;;;;;;8.40;69.90;;;;;;4968120;28;20009;-68
2023/03/06 14:37:33;;;;;;;;;;;8.30;69.20;;;;;;4963692;28;19926;-70
2023/03/06 14:40:03;;;;;;;;;;;8.20;71.20;;;;;;4974537;28;20015;-68
2023/03/06 14:42:30;;;;;;;;;;;8.10;68.70;;;;;;4964870;28;19941;-69